Time;durP1;ratioP1;P1;durP2;ratioP2;P2;SDS_P1;SDS_P2;PMS_P1;PMS_P2;Temp;Humidity;BMP_temperature;BMP_pressure;BME280_temperature;BME280_humidity;BME280_pressure;Samples;Min_cycle;Max_cycle;Signal;HPM_P1;HPM_P2
2024/04/14 00:02:13;;;;;;;5.80;4.85;;;18.20;99.90;;;;;;5410394;26;20259;-90
2024/04/14 00:04:39;;;;;;;10.97;5.67;;;18.20;99.90;;;;;;5412909;26;20235;-90
2024/04/14 00:07:04;;;;;;;8.52;5.53;;;18.10;99.90;;;;;;5409637;26;20714;-91
2024/04/14 00:09:30;;;;;;;6.70;5.05;;;18.00;99.90;;;;;;5409422;26;20224;-88
2024/04/14 00:11:56;;;;;;;6.30;5.67;;;17.90;99.90;;;;;;5411310;26;20621;-90
2024/04/14 00:14:23;;;;;;;6.60;5.33;;;17.80;99.90;;;;;;5412690;26;20556;-90
2024/04/14 00:16:49;;;;;;;4.80;4.40;;;17.70;99.90;;;;;;5412976;26;20309;-91
2024/04/14 00:19:20;;;;;;;6.83;4.30;;;17.60;99.90;;;;;;5384186;26;20221;-91
2024/04/14 00:21:46;;;;;;;4.50;3.93;;;17.60;99.90;;;;;;5412179;26;20224;-90
2024/04/14 00:24:14;;;;;;;3.93;3.43;;;17.60;99.90;;;;;;5415807;26;20733;-90
2024/04/14 00:26:43;;;;;;;4.60;3.17;;;17.50;99.90;;;;;;5412989;26;20267;-91
2024/04/14 00:29:08;;;;;;;3.50;3.20;;;17.50;99.90;;;;;;5415585;26;20232;-90
2024/04/14 00:31:34;;;;;;;3.93;2.90;;;17.40;99.90;;;;;;5414648;26;20582;-89
2024/04/14 00:34:00;;;;;;;3.40;3.10;;;17.30;99.90;;;;;;5415401;26;20220;-91
2024/04/14 00:36:25;;;;;;;3.13;2.93;;;17.20;99.90;;;;;;5413036;26;20220;-90
2024/04/14 00:38:51;;;;;;;3.73;2.90;;;17.20;99.90;;;;;;5415741;26;20216;-89
2024/04/14 00:41:17;;;;;;;3.63;3.30;;;17.10;99.90;;;;;;5412345;26;20263;-91
2024/04/14 00:43:42;;;;;;;3.53;3.23;;;17.00;99.90;;;;;;5413181;26;20264;-90
2024/04/14 00:46:08;;;;;;;3.23;2.93;;;16.90;99.90;;;;;;5423251;21;20264;-70
2024/04/14 00:48:33;;;;;;;3.30;3.00;;;16.80;99.90;;;;;;5406348;26;20208;-77
2024/04/14 00:51:00;;;;;;;2.80;2.60;;;16.70;99.90;;;;;;5410731;26;20287;-74
2024/04/14 00:53:26;;;;;;;3.90;2.40;;;16.60;99.90;;;;;;5452589;26;20273;-76
2024/04/14 00:55:51;;;;;;;3.97;2.67;;;16.60;99.90;;;;;;5452302;26;20622;-73
2024/04/14 00:58:18;;;;;;;3.53;2.27;;;16.60;99.90;;;;;;5451450;26;20320;-73
2024/04/14 01:00:45;;;;;;;2.53;2.33;;;16.50;99.90;;;;;;5451799;26;20227;-79
2024/04/14 01:03:10;;;;;;;5.37;2.37;;;16.50;99.90;;;;;;5419693;26;20367;-72
2024/04/14 01:05:36;;;;;;;2.70;2.13;;;16.40;99.90;;;;;;5405602;26;20216;-73
2024/04/14 01:08:02;;;;;;;2.30;2.17;;;16.30;99.90;;;;;;5405943;26;20221;-77
2024/04/14 01:10:29;;;;;;;4.37;2.30;;;16.30;99.90;;;;;;5406288;26;20328;-78
2024/04/14 01:12:55;;;;;;;2.70;2.50;;;16.20;99.90;;;;;;5405951;26;20265;-77
2024/04/14 01:15:20;;;;;;;2.60;2.33;;;16.20;99.90;;;;;;5406057;26;20213;-78
2024/04/14 01:17:46;;;;;;;3.50;2.43;;;16.10;99.90;;;;;;5434999;26;20397;-76
2024/04/14 01:20:13;;;;;;;2.60;2.30;;;16.00;99.90;;;;;;5448868;26;20714;-79
2024/04/14 01:22:38;;;;;;;2.47;2.33;;;15.90;99.90;;;;;;5452821;26;20714;-78
2024/04/14 01:25:06;;;;;;;6.77;2.50;;;15.90;99.90;;;;;;5453066;26;20257;-77
2024/04/14 01:27:35;;;;;;;2.87;2.50;;;15.80;99.90;;;;;;5424996;26;20220;-77
2024/04/14 01:30:05;;;;;;;3.47;2.60;;;15.80;99.90;;;;;;5406072;26;20855;-77
2024/04/14 01:32:34;;;;;;;2.87;2.67;;;15.70;99.90;;;;;;5406807;26;20213;-73
2024/04/14 01:35:00;;;;;;;5.63;2.87;;;15.60;99.90;;;;;;5406683;26;20306;-76
2024/04/14 01:37:26;;;;;;;2.90;2.40;;;15.50;99.90;;;;;;5406499;26;20208;-79
2024/04/14 01:39:52;;;;;;;5.50;2.33;;;15.50;99.90;;;;;;5406593;26;20247;-73
2024/04/14 01:42:17;;;;;;;3.20;2.60;;;15.40;99.90;;;;;;5406310;26;20321;-78
2024/04/14 01:44:43;;;;;;;4.73;2.63;;;15.40;99.90;;;;;;5407132;26;20216;-79
2024/04/14 01:47:09;;;;;;;8.33;2.83;;;15.30;99.90;;;;;;5406623;26;20205;-79
2024/04/14 01:49:35;;;;;;;4.17;2.70;;;15.30;99.90;;;;;;5404450;26;20224;-74
2024/04/14 01:52:01;;;;;;;3.13;2.90;;;15.20;99.90;;;;;;5407009;26;20228;-79
2024/04/14 01:54:27;;;;;;;3.20;2.70;;;15.10;99.90;;;;;;5438940;26;20223;-78
2024/04/14 01:56:52;;;;;;;3.13;2.30;;;15.10;99.90;;;;;;5453874;26;20606;-75
2024/04/14 01:59:18;;;;;;;2.80;2.60;;;15.10;99.90;;;;;;5438582;26;20228;-80
2024/04/14 02:01:43;;;;;;;4.87;2.93;;;15.00;99.90;;;;;;5407070;26;20228;-79
2024/04/14 02:04:09;;;;;;;5.33;2.60;;;14.90;99.90;;;;;;5407033;26;20306;-71
2024/04/14 02:06:34;;;;;;;3.00;2.80;;;14.90;99.90;;;;;;5407135;26;20209;-73
2024/04/14 02:09:00;;;;;;;3.73;2.60;;;14.90;99.90;;;;;;5406972;26;20311;-74
2024/04/14 02:11:26;;;;;;;2.90;2.60;;;14.80;99.90;;;;;;5405051;26;20239;-79
2024/04/14 02:13:51;;;;;;;3.13;2.73;;;14.80;99.90;;;;;;5415927;26;20801;-72
2024/04/14 02:16:17;;;;;;;4.57;2.87;;;14.70;99.90;;;;;;5452378;26;20219;-74
2024/04/14 02:18:42;;;;;;;3.63;2.80;;;14.70;99.90;;;;;;5452866;26;20326;-80
2024/04/14 02:21:08;;;;;;;7.93;2.60;;;14.70;99.90;;;;;;5441275;26;20320;-78
2024/04/14 02:23:33;;;;;;;2.67;2.40;;;14.60;99.90;;;;;;5405962;26;20208;-79
2024/04/14 02:25:59;;;;;;;3.03;2.57;;;14.60;99.90;;;;;;5406077;26;20254;-73
2024/04/14 02:28:25;;;;;;;3.73;2.80;;;14.50;99.90;;;;;;5406481;26;20807;-81
2024/04/14 02:30:51;;;;;;;2.60;2.40;;;14.50;99.90;;;;;;5407230;26;20228;-77
2024/04/14 02:33:18;;;;;;;4.30;3.10;;;14.40;99.90;;;;;;5405711;26;20658;-79
2024/04/14 02:35:54;;;;;;;6.47;2.70;;;14.40;99.90;;;;;;5414282;26;20686;-72
2024/04/14 02:38:19;;;;;;;3.60;2.90;;;14.30;99.90;;;;;;5453234;26;20323;-79
2024/04/14 02:41:15;;;;;;;4.60;2.90;;;14.30;99.90;;;;;;5454551;26;20733;-79
2024/04/14 02:43:41;;;;;;;4.43;2.83;;;14.20;99.90;;;;;;5438468;26;20207;-79
2024/04/14 02:46:07;;;;;;;2.90;2.70;;;14.10;99.90;;;;;;5454196;26;20307;-72
2024/04/14 02:48:32;;;;;;;4.57;2.70;;;14.00;99.90;;;;;;5451204;26;20701;-80
2024/04/14 02:50:58;;;;;;;4.80;2.67;;;14.00;99.90;;;;;;5450404;26;20257;-80
2024/04/14 02:53:25;;;;;;;5.07;2.77;;;13.90;99.90;;;;;;5453057;26;20257;-78
2024/04/14 02:55:51;;;;;;;4.17;3.23;;;13.90;99.90;;;;;;5453547;26;20262;-80
2024/04/14 02:58:17;;;;;;;3.50;3.20;;;13.90;99.90;;;;;;5452715;26;20207;-75
2024/04/14 03:00:42;;;;;;;5.60;3.00;;;13.80;99.90;;;;;;5453839;26;20235;-78
2024/04/14 03:03:08;;;;;;;3.00;2.80;;;13.80;99.90;;;;;;5453862;26;20281;-80
2024/04/14 03:05:33;;;;;;;3.73;2.90;;;13.80;99.90;;;;;;5438823;26;20704;-79
2024/04/14 03:07:59;;;;;;;5.43;3.27;;;13.80;99.90;;;;;;5408267;26;20209;-79
2024/04/14 03:10:25;;;;;;;6.37;3.00;;;13.70;99.90;;;;;;5406963;26;20224;-78
2024/04/14 03:12:50;;;;;;;3.37;2.90;;;13.70;99.90;;;;;;5407565;26;20204;-80
2024/04/14 03:15:16;;;;;;;3.83;3.20;;;13.70;99.90;;;;;;5404889;26;20254;-79
2024/04/14 03:17:41;;;;;;;3.33;3.03;;;13.60;99.90;;;;;;5407844;26;20239;-80
2024/04/14 03:20:07;;;;;;;4.00;3.00;;;13.60;99.90;;;;;;5451143;26;20238;-79
2024/04/14 03:22:33;;;;;;;5.20;3.07;;;13.60;99.90;;;;;;5453730;26;20253;-80
2024/04/14 03:24:59;;;;;;;4.20;3.13;;;13.50;99.90;;;;;;5453071;26;20319;-79
2024/04/14 03:27:24;;;;;;;3.30;3.10;;;13.40;99.90;;;;;;5451917;26;20223;-79
2024/04/14 03:29:50;;;;;;;3.73;3.40;;;13.30;99.90;;;;;;5451616;26;20265;-80
2024/04/14 03:32:16;;;;;;;6.03;3.07;;;13.20;99.90;;;;;;5452073;26;20219;-79
2024/04/14 03:34:45;;;;;;;3.50;3.20;;;13.20;99.90;;;;;;5412191;26;20217;-79
2024/04/14 03:37:10;;;;;;;4.10;3.33;;;13.10;99.90;;;;;;5406902;26;20212;-79
2024/04/14 03:39:36;;;;;;;3.80;3.33;;;13.10;99.90;;;;;;5405135;26;20209;-77
2024/04/14 03:42:02;;;;;;;3.20;3.00;;;13.00;99.90;;;;;;5406157;26;20217;-79
2024/04/14 03:44:28;;;;;;;3.30;2.80;;;13.00;99.90;;;;;;5406203;26;20209;-79
2024/04/14 03:46:54;;;;;;;5.50;3.03;;;13.00;99.90;;;;;;5406420;26;20239;-79
2024/04/14 03:49:20;;;;;;;5.23;3.50;;;13.00;99.90;;;;;;5443264;26;20223;-78
2024/04/14 03:51:45;;;;;;;3.83;3.43;;;13.00;99.90;;;;;;5450880;26;20219;-79
2024/04/14 03:54:11;;;;;;;3.87;3.47;;;13.00;99.90;;;;;;5452087;26;20273;-77
2024/04/14 03:56:36;;;;;;;4.50;3.63;;;13.00;99.90;;;;;;5409624;26;20262;-79
2024/04/14 03:59:03;;;;;;;5.13;4.03;;;13.00;99.90;;;;;;5405665;26;20251;-80
2024/04/14 04:01:29;;;;;;;9.53;4.63;;;13.00;99.90;;;;;;5409562;26;20220;-79
2024/04/14 04:03:54;;;;;;;3.53;3.23;;;13.00;99.90;;;;;;5408113;26;20750;-78
2024/04/14 04:06:20;;;;;;;4.00;3.50;;;13.00;99.90;;;;;;5409208;26;20229;-78
2024/04/14 04:08:46;;;;;;;5.63;3.17;;;12.90;99.90;;;;;;5408516;26;20695;-78
2024/04/14 04:11:11;;;;;;;3.63;3.33;;;12.90;99.90;;;;;;5408791;26;20332;-78
2024/04/14 04:13:37;;;;;;;6.20;3.70;;;12.90;99.90;;;;;;5408474;26;20204;-79
2024/04/14 04:16:04;;;;;;;4.53;3.90;;;12.90;99.90;;;;;;5426154;26;20267;-78
2024/04/14 04:18:30;;;;;;;4.10;3.50;;;12.90;99.90;;;;;;5454200;26;20272;-77
2024/04/14 04:20:57;;;;;;;3.70;3.40;;;12.90;99.90;;;;;;5454464;26;20257;-78
2024/04/14 04:23:24;;;;;;;6.73;4.20;;;12.80;99.90;;;;;;5442709;26;20225;-78
2024/04/14 04:25:50;;;;;;;5.87;4.47;;;12.80;99.90;;;;;;5408072;26;20547;-73
2024/04/14 04:28:16;;;;;;;7.67;4.00;;;12.90;99.90;;;;;;5408273;26;20309;-78
2024/04/14 04:30:41;;;;;;;4.30;3.90;;;12.90;99.90;;;;;;5407765;26;20236;-78
2024/04/14 04:33:07;;;;;;;5.13;4.00;;;12.90;99.90;;;;;;5408303;26;20316;-77
2024/04/14 04:35:33;;;;;;;4.00;3.60;;;12.90;99.90;;;;;;5408203;26;20216;-77
2024/04/14 04:37:58;;;;;;;5.90;3.63;;;12.90;99.90;;;;;;5410162;26;20570;-77
2024/04/14 04:42:52;;;;;;;5.43;4.10;;;13.00;99.90;;;;;;5369587;26;20234;-76
2024/04/14 04:45:18;;;;;;;5.37;3.70;;;12.90;99.90;;;;;;5371840;26;20676;-77
2024/04/14 04:47:44;;;;;;;8.23;3.73;;;12.80;99.90;;;;;;5378542;26;20225;-76
2024/04/14 04:50:09;;;;;;;6.20;4.00;;;12.80;99.90;;;;;;5407123;26;20777;-76
2024/04/14 04:52:35;;;;;;;5.80;3.93;;;12.70;99.90;;;;;;5407181;26;20213;-76
2024/04/14 04:55:01;;;;;;;4.27;3.40;;;12.70;99.90;;;;;;5407144;26;20281;-77
2024/04/14 04:57:27;;;;;;;3.97;3.67;;;12.70;99.90;;;;;;5399972;26;20686;-76
2024/04/14 04:59:52;;;;;;;6.20;4.10;;;12.60;99.90;;;;;;5369372;26;20217;-76
2024/04/14 05:02:18;;;;;;;8.17;4.00;;;12.60;99.90;;;;;;5371667;26;20230;-76
2024/04/14 05:04:43;;;;;;;5.77;3.90;;;12.60;99.90;;;;;;5371384;26;20225;-75
2024/04/14 05:07:09;;;;;;;7.03;3.70;;;12.70;99.90;;;;;;5371460;26;20209;-76
2024/04/14 05:09:34;;;;;;;7.13;4.00;;;12.70;99.90;;;;;;5371008;26;20658;-76
2024/04/14 05:12:00;;;;;;;6.20;4.00;;;12.70;99.90;;;;;;5370978;26;20229;-77
2024/04/14 05:14:26;;;;;;;4.40;3.70;;;12.70;99.90;;;;;;5371774;26;20316;-75
2024/04/14 05:16:51;;;;;;;6.77;4.27;;;12.60;99.90;;;;;;5398181;26;20224;-74
2024/04/14 05:19:17;;;;;;;5.90;4.07;;;12.70;99.90;;;;;;5405607;26;20217;-76
2024/04/14 05:21:45;;;;;;;6.90;4.27;;;12.70;99.90;;;;;;5405732;26;20313;-76
2024/04/14 05:24:11;;;;;;;7.37;4.40;;;12.80;99.90;;;;;;5405447;26;20212;-75
2024/04/14 05:26:37;;;;;;;9.20;4.57;;;12.80;99.90;;;;;;5405719;26;20258;-75
2024/04/14 05:29:03;;;;;;;13.07;4.60;;;12.90;99.90;;;;;;5405680;26;20289;-76
2024/04/14 05:31:29;;;;;;;8.53;4.97;;;13.00;99.90;;;;;;5402777;26;20228;-75
2024/04/14 05:33:56;;;;;;;9.60;5.10;;;13.00;99.90;;;;;;5405624;26;20221;-77
2024/04/14 05:36:21;;;;;;;11.27;4.73;;;13.20;99.90;;;;;;5405519;26;20599;-75
2024/04/14 05:38:47;;;;;;;7.27;5.60;;;13.20;99.90;;;;;;5405099;26;20212;-76
2024/04/14 05:41:16;;;;;;;7.77;4.90;;;13.30;99.90;;;;;;5405327;26;20221;-76
2024/04/14 05:43:42;;;;;;;10.77;5.43;;;13.40;99.90;;;;;;5391784;26;20288;-76
2024/04/14 05:46:08;;;;;;;8.37;5.03;;;13.40;99.90;;;;;;5370060;26;20260;-76
2024/04/14 05:48:33;;;;;;;16.93;4.93;;;13.60;99.90;;;;;;5370006;26;20693;-75
2024/04/14 05:50:59;;;;;;;8.27;4.37;;;13.70;99.90;;;;;;5383579;26;20228;-76
2024/04/14 05:53:24;;;;;;;10.37;5.00;;;13.80;99.90;;;;;;5405121;26;20285;-76
2024/04/14 05:55:50;;;;;;;12.00;4.90;;;13.90;99.90;;;;;;5404874;26;20208;-75
2024/04/14 05:58:16;;;;;;;9.20;5.30;;;14.00;99.90;;;;;;5404474;26;20209;-77
2024/04/14 06:00:41;;;;;;;7.57;4.47;;;14.10;99.90;;;;;;5405140;26;20220;-75
2024/04/14 06:03:07;;;;;;;10.53;5.10;;;14.10;99.90;;;;;;5405101;26;20208;-77
2024/04/14 06:05:33;;;;;;;9.00;5.07;;;14.10;99.90;;;;;;5395893;26;20226;-76
2024/04/14 06:07:59;;;;;;;10.70;5.10;;;14.10;99.90;;;;;;5367653;26;20333;-76
2024/04/14 06:10:24;;;;;;;9.37;4.70;;;14.10;99.90;;;;;;5369714;26;20276;-70
2024/04/14 06:12:50;;;;;;;14.27;6.20;;;14.10;99.90;;;;;;5396888;26;20552;-77
2024/04/14 06:15:16;;;;;;;13.03;5.73;;;14.10;99.90;;;;;;5402660;26;20228;-74
2024/04/14 06:17:42;;;;;;;14.40;5.77;;;14.10;99.90;;;;;;5404078;26;20367;-76
2024/04/14 06:20:08;;;;;;;11.97;5.83;;;14.10;99.90;;;;;;5404489;26;20216;-77
2024/04/14 06:22:33;;;;;;;9.27;5.27;;;14.10;99.90;;;;;;5374388;26;20299;-74
2024/04/14 06:24:59;;;;;;;11.03;5.80;;;14.10;99.90;;;;;;5368823;26;20260;-75
2024/04/14 06:27:25;;;;;;;13.83;6.30;;;14.20;99.90;;;;;;5368159;26;20229;-71
2024/04/14 06:29:51;;;;;;;12.67;6.10;;;14.30;99.90;;;;;;5403742;26;20216;-74
2024/04/14 06:32:17;;;;;;;10.70;5.50;;;14.40;99.90;;;;;;5404150;26;20333;-72
2024/04/14 06:34:42;;;;;;;13.53;5.63;;;14.50;99.90;;;;;;5404228;26;20228;-77
2024/04/14 06:37:14;;;;;;;13.73;5.87;;;14.50;99.90;;;;;;5404097;26;20254;-76
2024/04/14 06:39:39;;;;;;;11.30;5.80;;;14.60;99.90;;;;;;5401014;26;20324;-73
2024/04/14 06:42:05;;;;;;;11.10;5.20;;;14.60;99.90;;;;;;5403903;26;20228;-77
2024/04/14 06:44:31;;;;;;;12.47;7.03;;;14.70;99.90;;;;;;5404424;26;20239;-77
2024/04/14 06:46:57;;;;;;;11.70;5.53;;;14.70;99.90;;;;;;5404417;26;20204;-76
2024/04/14 06:49:22;;;;;;;10.27;5.40;;;14.90;99.90;;;;;;5403911;26;20209;-76
2024/04/14 06:51:48;;;;;;;10.20;4.90;;;15.10;99.90;;;;;;5403789;26;20221;-73
2024/04/14 06:54:14;;;;;;;10.93;6.53;;;15.40;99.90;;;;;;5386593;26;20221;-75
2024/04/14 06:56:39;;;;;;;11.20;5.73;;;15.70;99.90;;;;;;5368786;26;20229;-76
2024/04/14 06:59:05;;;;;;;11.60;5.50;;;15.80;99.90;;;;;;5368638;26;20277;-76
2024/04/14 07:01:31;;;;;;;6.87;4.93;;;15.90;99.90;;;;;;5368469;26;20225;-76
2024/04/14 07:03:57;;;;;;;8.80;5.27;;;16.10;99.90;;;;;;5368014;26;20868;-75
2024/04/14 07:06:22;;;;;;;9.60;5.20;;;16.20;99.90;;;;;;5369902;26;20214;-76
2024/04/14 07:08:48;;;;;;;12.60;5.40;;;16.20;99.90;;;;;;5403749;26;20835;-74
2024/04/14 07:11:13;;;;;;;9.70;4.80;;;16.30;99.90;;;;;;5403859;26;20221;-76
2024/04/14 07:13:39;;;;;;;12.43;4.93;;;16.50;99.90;;;;;;5403669;26;20290;-72
2024/04/14 07:16:05;;;;;;;11.17;5.43;;;16.60;99.90;;;;;;5403597;26;20213;-74
2024/04/14 07:18:31;;;;;;;9.03;4.97;;;16.70;99.90;;;;;;5404213;26;20220;-77
2024/04/14 07:20:56;;;;;;;7.60;4.50;;;16.70;99.90;;;;;;5402970;26;20228;-78
2024/04/14 07:23:22;;;;;;;11.33;4.80;;;16.70;99.90;;;;;;5370350;26;20710;-77
2024/04/14 07:25:48;;;;;;;11.23;4.87;;;16.90;99.90;;;;;;5368398;26;20554;-70
2024/04/14 07:28:13;;;;;;;9.03;4.67;;;16.90;99.90;;;;;;5369812;26;20205;-78
2024/04/14 07:30:39;;;;;;;11.00;5.10;;;16.90;99.90;;;;;;5368946;26;20684;-77
2024/04/14 07:33:04;;;;;;;8.40;5.03;;;16.90;99.90;;;;;;5369566;26;20244;-78
2024/04/14 07:35:30;;;;;;;9.47;4.60;;;17.00;99.90;;;;;;5394314;26;20275;-72
2024/04/14 07:37:56;;;;;;;10.63;5.53;;;17.00;99.90;;;;;;5404643;26;20699;-76
2024/04/14 07:40:21;;;;;;;11.30;5.00;;;16.90;99.90;;;;;;5407096;26;20244;-72
2024/04/14 07:42:47;;;;;;;10.50;4.93;;;16.80;99.90;;;;;;5406463;26;20229;-72
2024/04/14 07:45:12;;;;;;;9.57;5.10;;;16.80;99.90;;;;;;5380166;26;20217;-71
2024/04/14 07:47:38;;;;;;;8.20;4.60;;;16.80;99.90;;;;;;5371283;26;20217;-77
2024/04/14 07:50:05;;;;;;;9.87;5.17;;;17.10;99.90;;;;;;5371235;26;20256;-78
2024/04/14 07:52:31;;;;;;;7.43;4.93;;;17.40;99.90;;;;;;5371998;26;20609;-77
2024/04/14 07:54:57;;;;;;;7.87;4.50;;;17.50;99.90;;;;;;5371849;26;20318;-77
2024/04/14 07:57:22;;;;;;;9.53;4.57;;;17.50;99.90;;;;;;5371255;26;20313;-76
2024/04/14 07:59:49;;;;;;;8.07;4.40;;;17.40;99.90;;;;;;5395502;26;20232;-77
2024/04/14 08:02:14;;;;;;;9.43;5.07;;;17.50;99.90;;;;;;5407516;26;20232;-76
2024/04/14 08:04:40;;;;;;;12.23;4.95;;;17.70;99.90;;;;;;5406506;26;20259;-77
2024/04/14 08:07:06;;;;;;;12.60;5.22;;;18.00;99.90;;;;;;5407540;26;20340;-78
2024/04/14 08:09:31;;;;;;;11.80;5.03;;;18.40;99.90;;;;;;5403612;26;20266;-73
2024/04/14 08:11:57;;;;;;;6.28;4.65;;;18.70;99.90;;;;;;5372181;26;20386;-77
2024/04/14 08:14:22;;;;;;;8.13;4.80;;;18.70;99.90;;;;;;5373618;26;20210;-77
2024/04/14 08:16:48;;;;;;;9.25;5.15;;;18.70;99.90;;;;;;5374035;26;20321;-70
2024/04/14 08:19:14;;;;;;;10.05;4.85;;;18.50;99.90;;;;;;5371251;26;20289;-74
2024/04/14 08:21:39;;;;;;;10.13;5.32;;;18.50;99.90;;;;;;5371840;26;20221;-77
2024/04/14 08:24:06;;;;;;;7.90;4.73;;;18.40;99.90;;;;;;5372099;26;20264;-77
2024/04/14 08:26:32;;;;;;;7.75;4.10;;;18.70;99.90;;;;;;5372505;26;20275;-76
2024/04/14 08:28:58;;;;;;;8.52;4.28;;;19.00;99.90;;;;;;5370720;26;20218;-77
2024/04/14 08:31:23;;;;;;;10.63;3.92;;;18.80;99.90;;;;;;5394152;26;20561;-78
2024/04/14 08:33:49;;;;;;;7.50;3.30;;;18.80;99.90;;;;;;5406539;26;20259;-78
2024/04/14 08:36:14;;;;;;;8.85;3.75;;;18.70;99.90;;;;;;5404858;26;20228;-74
2024/04/14 08:38:40;;;;;;;6.57;3.45;;;18.50;99.90;;;;;;5405900;26;20217;-70
2024/04/14 08:41:05;;;;;;;5.57;3.30;;;18.10;99.90;;;;;;5405544;26;20280;-77
2024/04/14 08:43:31;;;;;;;6.67;3.63;;;17.90;99.90;;;;;;5406376;26;20228;-77
2024/04/14 08:45:58;;;;;;;8.27;3.90;;;17.90;99.90;;;;;;5404539;26;20220;-74
2024/04/14 08:48:24;;;;;;;9.43;4.28;;;18.10;99.90;;;;;;5406300;26;20212;-72
2024/04/14 08:50:51;;;;;;;9.80;4.40;;;18.10;99.90;;;;;;5400497;26;20224;-77
2024/04/14 08:53:18;;;;;;;8.70;3.80;;;18.40;99.90;;;;;;5404368;26;20694;-74
2024/04/14 08:55:44;;;;;;;9.13;4.78;;;18.70;99.90;;;;;;5406192;26;20584;-77
2024/04/14 08:58:12;;;;;;;10.00;4.63;;;18.80;99.90;;;;;;5391618;26;20226;-78
2024/04/14 09:00:38;;;;;;;7.95;4.40;;;18.70;99.90;;;;;;5370759;26;20234;-77
2024/04/14 09:03:04;;;;;;;6.07;3.35;;;18.70;99.90;;;;;;5370606;26;20268;-76
2024/04/14 09:05:34;;;;;;;7.47;3.85;;;18.70;99.90;;;;;;5370737;26;20589;-77
2024/04/14 09:07:59;;;;;;;11.98;4.88;;;18.70;99.90;;;;;;5369781;26;20221;-78
2024/04/14 09:10:26;;;;;;;8.95;4.18;;;18.70;99.90;;;;;;5370088;26;20330;-71
2024/04/14 09:12:54;;;;;;;11.63;4.40;;;18.80;99.90;;;;;;5372379;26;20276;-77
2024/04/14 09:15:19;;;;;;;6.32;4.10;;;18.80;99.90;;;;;;5375427;26;20766;-78
2024/04/14 09:17:45;;;;;;;10.02;4.95;;;18.90;99.90;;;;;;5370025;26;20214;-75
2024/04/14 09:20:11;;;;;;;8.23;3.88;;;19.00;99.90;;;;;;5369618;26;20264;-77
2024/04/14 09:22:39;;;;;;;6.78;3.45;;;19.00;99.90;;;;;;5371023;26;20217;-76
2024/04/14 09:25:08;;;;;;;4.78;3.28;;;19.10;99.90;;;;;;5372199;26;20279;-77
2024/04/14 09:27:34;;;;;;;9.68;2.90;;;19.30;99.90;;;;;;5335399;26;20714;-69
2024/04/14 09:30:17;;;;;;;8.70;2.92;;;19.60;99.90;;;;;;5334893;26;20275;-76
2024/04/14 09:32:43;;;;;;;7.32;3.10;;;19.80;99.90;;;;;;5335420;26;20223;-76
2024/04/14 09:35:09;;;;;;;6.03;4.03;;;20.00;99.90;;;;;;5334343;26;20249;-74
2024/04/14 09:37:37;;;;;;;8.18;3.38;;;20.10;99.90;;;;;;5368838;26;20840;-76
2024/04/14 09:40:06;;;;;;;9.82;3.10;;;20.40;99.90;;;;;;5404400;26;20209;-73
2024/04/14 09:42:34;;;;;;;6.03;3.17;;;20.70;99.90;;;;;;5404523;26;20220;-74
2024/04/14 09:45:05;;;;;;;6.40;2.67;;;20.70;99.90;;;;;;5404897;26;20742;-75
2024/04/14 09:47:31;;;;;;;4.90;3.17;;;20.50;99.90;;;;;;5405230;26;20252;-78
2024/04/14 09:49:57;;;;;;;7.93;2.88;;;20.30;99.90;;;;;;5386507;26;20315;-73
2024/04/14 09:52:23;;;;;;;6.30;3.25;;;20.10;99.90;;;;;;5369034;26;20222;-72
2024/04/14 09:54:50;;;;;;;4.47;2.78;;;19.90;99.90;;;;;;5371909;26;20268;-74
2024/04/14 09:57:17;;;;;;;5.53;2.78;;;20.10;99.90;;;;;;5369293;26;20599;-75
2024/04/14 09:59:43;;;;;;;4.22;2.90;;;20.40;99.90;;;;;;5369951;26;20240;-75
2024/04/14 10:02:15;;;;;;;4.20;3.05;;;20.70;99.90;;;;;;5369026;26;20233;-74
2024/04/14 10:04:47;;;;;;;4.78;2.63;;;20.90;99.90;;;;;;5369540;26;20244;-77
2024/04/14 10:07:15;;;;;;;4.72;2.90;;;20.90;99.90;;;;;;5384246;26;20272;-76
2024/04/14 10:09:47;;;;;;;6.18;3.25;;;21.00;99.90;;;;;;5404199;26;20345;-75
2024/04/14 10:12:13;;;;;;;6.15;3.30;;;20.90;99.90;;;;;;5404927;26;20258;-69
2024/04/14 10:14:48;;;;;;;5.07;2.90;;;20.80;99.90;;;;;;5404534;26;20209;-72
2024/04/14 10:17:17;;;;;;;4.13;2.55;;;20.60;99.90;;;;;;5405054;26;20666;-75
2024/04/14 10:20:13;;;;;;;6.50;2.88;;;20.60;99.90;;;;;;5403892;26;20212;-72
2024/04/14 10:22:40;;;;;;;4.15;2.92;;;20.50;99.90;;;;;;5374985;26;20763;-75
2024/04/14 10:25:21;;;;;;;8.27;3.20;;;20.40;99.90;;;;;;5369846;26;20221;-77
2024/04/14 10:27:46;;;;;;;5.50;2.80;;;20.30;99.90;;;;;;5368928;26;20302;-69
2024/04/14 10:30:20;;;;;;;5.45;3.33;;;20.40;99.90;;;;;;5369065;26;20723;-76
2024/04/14 10:32:45;;;;;;;4.80;3.30;;;20.40;99.90;;;;;;5369028;26;20291;-76
2024/04/14 10:35:17;;;;;;;6.07;2.90;;;20.60;99.90;;;;;;5369058;26;20712;-70
2024/04/14 10:37:53;;;;;;;4.07;2.83;;;20.60;99.90;;;;;;5401965;26;20220;-70
2024/04/14 10:42:48;;;;;;;8.20;2.88;;;20.50;99.90;;;;;;5333135;26;20235;-75
2024/04/14 10:45:24;;;;;;;5.68;2.65;;;20.90;99.90;;;;;;5335413;26;20231;-79
2024/04/14 10:47:51;;;;;;;6.50;3.20;;;21.30;99.90;;;;;;5335801;26;20210;-75
2024/04/14 10:50:16;;;;;;;7.65;3.05;;;21.30;99.90;;;;;;5335998;26;20215;-79
2024/04/14 10:52:42;;;;;;;5.75;2.83;;;21.20;99.90;;;;;;5337905;26;20296;-77
2024/04/14 10:55:07;;;;;;;4.38;2.80;;;21.50;99.90;;;;;;5337555;26;20226;-79
2024/04/14 10:57:33;;;;;;;5.47;3.38;;;21.70;99.90;;;;;;5337559;26;20210;-80
2024/04/14 10:59:59;;;;;;;5.75;3.40;;;21.60;99.90;;;;;;5335730;26;20218;-72
2024/04/14 11:02:25;;;;;;;6.43;3.78;;;21.30;99.90;;;;;;5337112;26;20315;-74
2024/04/14 11:04:50;;;;;;;4.10;3.05;;;21.40;99.90;;;;;;5306863;26;20239;-76
2024/04/14 11:07:16;;;;;;;4.32;2.65;;;22.00;99.90;;;;;;5335047;26;20241;-73
2024/04/14 11:09:42;;;;;;;6.38;2.60;;;22.40;99.90;;;;;;5335904;26;20265;-73
2024/04/14 11:12:08;;;;;;;4.43;3.15;;;22.40;99.90;;;;;;5337912;26;20289;-74
2024/04/14 11:14:33;;;;;;;6.32;3.45;;;21.70;99.90;;;;;;5340270;26;20302;-74
2024/04/14 11:17:10;;;;;;;4.72;3.05;;;21.30;99.90;;;;;;5339301;26;20230;-78
2024/04/14 11:19:36;;;;;;;5.57;3.50;;;21.00;99.90;;;;;;5339127;26;20210;-79
2024/04/14 11:22:01;;;;;;;4.85;3.20;;;20.90;99.90;;;;;;5338859;26;20584;-78
2024/04/14 11:24:27;;;;;;;7.50;3.40;;;21.00;99.90;;;;;;5339651;26;20222;-79
2024/04/14 11:26:53;;;;;;;5.55;3.42;;;21.20;99.90;;;;;;5339687;26;20226;-73
2024/04/14 11:29:19;;;;;;;7.88;3.50;;;21.50;99.90;;;;;;5338611;26;20273;-76
2024/04/14 11:31:44;;;;;;;8.70;3.75;;;21.60;99.90;;;;;;5338902;26;20230;-80
2024/04/14 11:34:11;;;;;;;5.22;3.20;;;21.40;99.90;;;;;;5338632;26;20759;-74
2024/04/14 11:36:40;;;;;;;7.35;3.15;;;21.30;99.90;;;;;;5338423;26;20265;-72
2024/04/14 11:39:05;;;;;;;8.60;3.60;;;21.10;99.90;;;;;;5338168;26;20210;-77
2024/04/14 11:41:32;;;;;;;5.50;3.85;;;20.70;99.90;;;;;;5338017;26;20257;-77
2024/04/14 11:43:58;;;;;;;9.77;4.25;;;20.20;99.90;;;;;;5337609;26;20614;-77
2024/04/14 11:46:24;;;;;;;7.00;3.85;;;19.70;99.90;;;;;;5338626;26;20218;-78
2024/04/14 11:48:50;;;;;;;7.80;4.03;;;19.50;99.90;;;;;;5338271;26;20265;-77
2024/04/14 11:51:15;;;;;;;6.85;3.72;;;19.70;99.90;;;;;;5338704;26;20269;-77
2024/04/14 11:53:41;;;;;;;9.55;3.53;;;20.00;99.90;;;;;;5337554;26;20563;-77
2024/04/14 11:56:07;;;;;;;8.75;3.70;;;20.10;99.90;;;;;;5324456;26;20267;-79
2024/04/14 11:58:32;;;;;;;9.15;3.83;;;20.40;99.90;;;;;;5338302;26;20218;-79
2024/04/14 12:00:58;;;;;;;7.25;3.70;;;20.60;99.90;;;;;;5337280;26;20327;-79
2024/04/14 12:03:24;;;;;;;7.03;3.70;;;20.60;99.90;;;;;;5307363;26;20226;-79
2024/04/14 12:05:51;;;;;;;11.57;4.40;;;20.40;99.90;;;;;;5336848;26;20219;-76
2024/04/14 12:08:16;;;;;;;8.00;4.50;;;20.20;99.90;;;;;;5336711;26;20218;-77
2024/04/14 12:10:42;;;;;;;4.63;3.60;;;20.10;99.90;;;;;;5306354;26;20238;-77
2024/04/14 12:13:09;;;;;;;9.38;4.00;;;20.00;99.90;;;;;;5336374;26;20305;-76
2024/04/14 12:15:35;;;;;;;7.50;3.80;;;20.00;99.90;;;;;;5338579;26;20720;-79
2024/04/14 12:18:01;;;;;;;9.70;3.85;;;20.10;99.90;;;;;;5337471;26;20214;-78
2024/04/14 12:20:27;;;;;;;8.93;4.32;;;19.90;99.90;;;;;;5338796;26;20603;-77
2024/04/14 12:22:53;;;;;;;6.60;3.22;;;19.80;99.90;;;;;;5339161;26;20215;-78
2024/04/14 12:25:20;;;;;;;4.35;3.65;;;19.80;99.90;;;;;;5338160;26;20207;-76
2024/04/14 12:27:45;;;;;;;9.27;4.13;;;20.00;99.90;;;;;;5338020;26;20288;-79
2024/04/14 12:30:11;;;;;;;6.68;3.85;;;20.20;99.90;;;;;;5339292;26;20222;-77
2024/04/14 12:32:37;;;;;;;6.68;3.70;;;20.20;99.90;;;;;;5336997;26;20222;-77
2024/04/14 12:35:04;;;;;;;7.13;3.60;;;20.40;99.90;;;;;;5337350;26;20274;-77
2024/04/14 12:37:29;;;;;;;13.32;3.95;;;20.30;99.90;;;;;;5336998;26;20223;-74
2024/04/14 12:39:55;;;;;;;10.00;3.80;;;20.20;99.90;;;;;;5336633;26;20718;-77
2024/04/14 12:42:21;;;;;;;8.38;3.35;;;20.10;99.90;;;;;;5337654;26;20258;-74
2024/04/14 12:44:46;;;;;;;6.68;3.42;;;20.10;99.90;;;;;;5337656;26;20211;-77
2024/04/14 12:47:12;;;;;;;7.75;3.15;;;20.00;99.90;;;;;;5338022;26;20311;-73